La Belle — WDC2767 — position and weather

sailwx.info

Track history (hours):
 
Tides and Currents Weather Stations Pressure Air Temp Water Temp Dewpoint Dewpoint Depression Visibility Wind Speed Wind Dir Waves Ship Positions

La Belle

Owner: Double G Marine, LLC, Houma, LA. More information available from US FCC via Universal Licensing System and Coast Guard Vessel Documentation Center.

Last reported at 2018-May-20 12:09 UTC. Time now 2018-May-21 09:10 UTC.
Position N 29°44' W 095°09'.

Length 20 m.

Type: Towing. MMSI: 366997450.

Date/timePositionNaut miles runAvg speedWind from/ knotsBaromVisibWave heightAir tempDewpointWater temp
2018-May-20 12:09N 29°44' W 095°09'0 0.0
2018-May-19 22:57N 29°45' W 095°10'0 0.0
2018-May-19 18:48N 29°45' W 095°10'1 0.1
2018-May-19 07:42N 29°44' W 095°09'2 0.3
2018-May-19 02:27N 29°45' W 095°11'0 0.0
2018-May-18 15:05N 29°45' W 095°11'2 6.4
2018-May-18 14:50N 29°44' W 095°09'0 0.1
2018-May-18 12:06N 29°44' W 095°09'4 4.3
2018-May-18 11:15N 29°43' W 095°13'0 0.0
2018-May-18 10:59N 29°43' W 095°13'0 0.0
2018-May-18 10:30N 29°43' W 095°13'0 0.0
2018-May-18 10:00N 29°43' W 095°13'0 0.0
2018-May-18 09:22N 29°43' W 095°13'0 0.0
2018-May-18 08:59N 29°43' W 095°13'0 0.0
2018-May-18 08:30N 29°43' W 095°13'0 0.0
2018-May-18 08:00N 29°43' W 095°13'0 0.3
2018-May-18 07:30N 29°43' W 095°13'1 2.1
2018-May-18 07:00N 29°44' W 095°12'1 1.6
2018-May-18 06:30N 29°45' W 095°12'3 6.0
2018-May-18 06:00N 29°44' W 095°08'3 5.8
2018-May-18 05:30N 29°46' W 095°05'1 1.8
2018-May-18 05:00N 29°46' W 095°05'2 3.2
2018-May-18 04:30N 29°45' W 095°06'3 6.0
2018-May-18 03:59N 29°44' W 095°09'3 5.7
2018-May-18 03:30N 29°44' W 095°12'1 1.9
2018-May-18 03:00N 29°43' W 095°13'3 0.5
2018-May-17 19:48N 29°45' W 095°10'1 0.1
2018-May-17 13:39N 29°44' W 095°09'1 6.9
2018-May-17 13:30N 29°44' W 095°08'4 4.9
2018-May-17 12:47N 29°46' W 095°05'0 0.5
2018-May-17 12:28N 29°46' W 095°05'3 5.7
2018-May-17 11:54N 29°44' W 095°08'3 6.0
2018-May-17 11:28N 29°45' W 095°10'3 1.3
2018-May-17 09:16N 29°43' W 095°13'0 0.0
2018-May-17 09:01N 29°43' W 095°13'0 0.0
2018-May-17 08:13N 29°43' W 095°13'1 3.1
2018-May-17 08:00N 29°44' W 095°13'3 5.2
2018-May-17 07:23N 29°44' W 095°09'4 2.7
2018-May-17 06:06N 29°46' W 095°05'1 5.7
2018-May-17 06:00N 29°45' W 095°06'3 5.9
2018-May-17 05:30N 29°44' W 095°09'4 3.6
2018-May-17 04:25N 29°43' W 095°13'0 0.0
2018-May-17 04:01N 29°43' W 095°13'0 0.0
2018-May-17 03:29N 29°43' W 095°13'0 0.0
2018-May-17 03:00N 29°43' W 095°13'3 5.0
2018-May-17 02:20N 29°44' W 095°09'2 6.3
2018-May-17 01:59N 29°44' W 095°07'3 0.4
2018-May-16 18:08N 29°45' W 095°11'2 4.9
2018-May-16 17:48N 29°44' W 095°09'4 1.4
2018-May-16 15:04N 29°46' W 095°05'0 6.2
2018-May-16 14:59N 29°46' W 095°05'1 1.2
2018-May-16 14:25N 29°46' W 095°06'0 0.0
2018-May-16 14:00N 29°46' W 095°06'0 0.0
2018-May-16 13:29N 29°46' W 095°06'1 1.7
2018-May-16 13:00N 29°46' W 095°05'1 1.7
2018-May-16 12:30N 29°46' W 095°05'0 0.0
2018-May-16 12:00N 29°46' W 095°05'0 0.0
2018-May-16 11:30N 29°46' W 095°05'0 0.1
2018-May-16 11:01N 29°46' W 095°05'0 0.0
2018-May-16 10:30N 29°46' W 095°05'0 0.0
2018-May-16 10:00N 29°46' W 095°05'0 0.0
2018-May-16 09:30N 29°46' W 095°05'0 0.0
2018-May-16 08:59N 29°46' W 095°05'0 0.0
2018-May-16 08:30N 29°46' W 095°05'0 0.0
2018-May-16 08:00N 29°46' W 095°05'0 0.0
2018-May-16 07:30N 29°46' W 095°05'1 2.8
2018-May-16 07:00N 29°45' W 095°06'0 0.7
2018-May-16 06:30N 29°46' W 095°06'0 0.0
2018-May-16 06:00N 29°46' W 095°06'2 3.0
2018-May-16 05:30N 29°46' W 095°05'2 3.3
2018-May-16 04:59N 29°45' W 095°06'3 5.0
2018-May-16 04:29N 29°44' W 095°09'3 5.9
2018-May-16 04:00N 29°45' W 095°12'1 1.3
2018-May-16 03:30N 29°44' W 095°12'0 0.1
2018-May-16 03:00N 29°44' W 095°12'0 0.1
2018-May-16 02:30N 29°44' W 095°12'0 0.0
2018-May-16 02:00N 29°44' W 095°12'0 0.0
2018-May-15 12:15N 29°44' W 095°13'1 4.8
2018-May-15 12:00N 29°45' W 095°12'3 5.6
2018-May-15 11:30N 29°44' W 095°08'3 6.5
2018-May-15 11:00N 29°46' W 095°05'1 1.5
2018-May-15 10:30N 29°46' W 095°05'1 3.0
2018-May-15 10:00N 29°45' W 095°06'3 5.4
2018-May-15 09:29N 29°44' W 095°09'3 5.9
2018-May-15 09:00N 29°45' W 095°12'1 1.4
2018-May-15 08:18N 29°44' W 095°13'0 0.1
2018-May-15 07:59N 29°44' W 095°13'0 0.1
2018-May-15 06:37N 29°44' W 095°13'1 1.9
2018-May-15 06:20N 29°44' W 095°12'0 0.1
2018-May-15 05:57N 29°44' W 095°12'0 0.0
2018-May-15 05:29N 29°44' W 095°12'0 0.0
2018-May-15 04:47N 29°44' W 095°12'0 0.0
2018-May-15 04:30N 29°44' W 095°12'0 0.0
2018-May-15 04:00N 29°44' W 095°12'0 0.1
2018-May-15 03:29N 29°44' W 095°12'2 4.0
2018-May-15 03:00N 29°45' W 095°10'3 6.4
2018-May-15 02:30N 29°45' W 095°06'2 4.8
2018-May-15 02:00N 29°46' W 095°05'0 0.0
2018-May-15 01:29N 29°46' W 095°05'0 0.0
2018-May-15 00:59N 29°46' W 095°05'4 0.4
2018-May-14 13:35N 29°44' W 095°09'1 6.2
2018-May-14 13:30N 29°45' W 095°10'1 0.0
2018-May-13 12:09N 29°45' W 095°10'1 7.3
2018-May-13 11:57N 29°44' W 095°09'1 0.2
2018-May-13 06:36N 29°45' W 095°10'1 7.1
2018-May-13 06:26N 29°44' W 095°09'2 0.3
2018-May-12 22:25N 29°45' W 095°06'3 5.5
2018-May-12 21:56N 29°44' W 095°09'2 0.5
2018-May-12 18:27N 29°45' W 095°11'3 7.1
2018-May-12 18:00N 29°44' W 095°08'1 0.9
2018-May-12 16:43N 29°44' W 095°07'2 6.2
2018-May-12 16:23N 29°44' W 095°09'0 0.0
2018-May-12 12:26N 29°44' W 095°09'1 0.3
2018-May-12 06:56N 29°45' W 095°10'1 0.2
2018-May-12 00:49N 29°44' W 095°09'4 6.8
2018-May-12 00:12N 29°46' W 095°05'0 0.5
2018-May-11 23:52N 29°46' W 095°05'3 3.6
2018-May-11 23:08N 29°44' W 095°07'1 6.1
2018-May-11 22:59N 29°44' W 095°08'3 0.1
2018-May-11 01:43N 29°45' W 095°11'2 5.3
2018-May-11 01:25N 29°44' W 095°09'3 6.0
2018-May-11 00:54N 29°45' W 095°06'1 3.4
2018-May-11 00:30N 29°46' W 095°05'0 0.0
2018-May-10 23:51N 29°46' W 095°05'0 0.0
2018-May-10 22:41N 29°46' W 095°05'0 0.0
2018-May-10 22:17N 29°46' W 095°05'0 0.0
2018-May-10 21:59N 29°46' W 095°05'2 3.9
2018-May-10 21:24N 29°45' W 095°06'4 1.1
2018-May-10 17:43N 29°45' W 095°11'2 6.4
2018-May-10 17:25N 29°44' W 095°09'4 6.8
2018-May-10 16:48N 29°46' W 095°05'0 0.5
2018-May-10 16:29N 29°46' W 095°05'0 0.0
2018-May-10 16:00N 29°46' W 095°05'0 0.0
2018-May-10 15:18N 29°46' W 095°05'0 0.0
2018-May-10 15:00N 29°46' W 095°05'0 0.0
2018-May-10 14:23N 29°46' W 095°05'0 0.0
2018-May-10 13:57N 29°46' W 095°05'0 0.0
2018-May-10 13:29N 29°46' W 095°05'1 1.8
2018-May-10 12:58N 29°46' W 095°05'3 5.8
2018-May-10 12:27N 29°44' W 095°08'  
Track history (hours):
 
Tides and Currents Weather Stations Pressure Air Temp Water Temp Dewpoint Dewpoint Depression Visibility Wind Speed Wind Dir Waves Ship Positions

La Belle

Owner: Double G Marine, LLC, Houma, LA. More information available from US FCC via Universal Licensing System and Coast Guard Vessel Documentation Center.

Last reported at 2018-May-20 12:09 UTC. Time now 2018-May-21 09:10 UTC.
Position N 29°44' W 095°09'.

Length 20 m.

Type: Towing. MMSI: 366997450.

Date/timePositionNaut miles runAvg speedWind from/ knotsBaromVisibWave heightAir tempDewpointWater temp
2018-May-20 12:09N 29°44' W 095°09'0 0.0
2018-May-19 22:57N 29°45' W 095°10'0 0.0
2018-May-19 18:48N 29°45' W 095°10'1 0.1
2018-May-19 07:42N 29°44' W 095°09'2 0.3
2018-May-19 02:27N 29°45' W 095°11'0 0.0
2018-May-18 15:05N 29°45' W 095°11'2 6.4
2018-May-18 14:50N 29°44' W 095°09'0 0.1
2018-May-18 12:06N 29°44' W 095°09'4 4.3
2018-May-18 11:15N 29°43' W 095°13'0 0.0
2018-May-18 10:59N 29°43' W 095°13'0 0.0
2018-May-18 10:30N 29°43' W 095°13'0 0.0
2018-May-18 10:00N 29°43' W 095°13'0 0.0
2018-May-18 09:22N 29°43' W 095°13'0 0.0
2018-May-18 08:59N 29°43' W 095°13'0 0.0
2018-May-18 08:30N 29°43' W 095°13'0 0.0
2018-May-18 08:00N 29°43' W 095°13'0 0.3
2018-May-18 07:30N 29°43' W 095°13'1 2.1
2018-May-18 07:00N 29°44' W 095°12'1 1.6
2018-May-18 06:30N 29°45' W 095°12'3 6.0
2018-May-18 06:00N 29°44' W 095°08'3 5.8
2018-May-18 05:30N 29°46' W 095°05'1 1.8
2018-May-18 05:00N 29°46' W 095°05'2 3.2
2018-May-18 04:30N 29°45' W 095°06'3 6.0
2018-May-18 03:59N 29°44' W 095°09'3 5.7
2018-May-18 03:30N 29°44' W 095°12'1 1.9
2018-May-18 03:00N 29°43' W 095°13'3 0.5
2018-May-17 19:48N 29°45' W 095°10'1 0.1
2018-May-17 13:39N 29°44' W 095°09'1 6.9
2018-May-17 13:30N 29°44' W 095°08'4 4.9
2018-May-17 12:47N 29°46' W 095°05'0 0.5
2018-May-17 12:28N 29°46' W 095°05'3 5.7
2018-May-17 11:54N 29°44' W 095°08'3 6.0
2018-May-17 11:28N 29°45' W 095°10'3 1.3
2018-May-17 09:16N 29°43' W 095°13'0 0.0
2018-May-17 09:01N 29°43' W 095°13'0 0.0
2018-May-17 08:13N 29°43' W 095°13'1 3.1
2018-May-17 08:00N 29°44' W 095°13'3 5.2
2018-May-17 07:23N 29°44' W 095°09'4 2.7
2018-May-17 06:06N 29°46' W 095°05'1 5.7
2018-May-17 06:00N 29°45' W 095°06'3 5.9
2018-May-17 05:30N 29°44' W 095°09'4 3.6
2018-May-17 04:25N 29°43' W 095°13'0 0.0
2018-May-17 04:01N 29°43' W 095°13'0 0.0
2018-May-17 03:29N 29°43' W 095°13'0 0.0
2018-May-17 03:00N 29°43' W 095°13'3 5.0
2018-May-17 02:20N 29°44' W 095°09'2 6.3
2018-May-17 01:59N 29°44' W 095°07'3 0.4
2018-May-16 18:08N 29°45' W 095°11'2 4.9
2018-May-16 17:48N 29°44' W 095°09'4 1.4
2018-May-16 15:04N 29°46' W 095°05'0 6.2
2018-May-16 14:59N 29°46' W 095°05'1 1.2
2018-May-16 14:25N 29°46' W 095°06'0 0.0
2018-May-16 14:00N 29°46' W 095°06'0 0.0
2018-May-16 13:29N 29°46' W 095°06'1 1.7
2018-May-16 13:00N 29°46' W 095°05'1 1.7
2018-May-16 12:30N 29°46' W 095°05'0 0.0
2018-May-16 12:00N 29°46' W 095°05'0 0.0
2018-May-16 11:30N 29°46' W 095°05'0 0.1
2018-May-16 11:01N 29°46' W 095°05'0 0.0
2018-May-16 10:30N 29°46' W 095°05'0 0.0
2018-May-16 10:00N 29°46' W 095°05'0 0.0
2018-May-16 09:30N 29°46' W 095°05'0 0.0
2018-May-16 08:59N 29°46' W 095°05'0 0.0
2018-May-16 08:30N 29°46' W 095°05'0 0.0
2018-May-16 08:00N 29°46' W 095°05'0 0.0
2018-May-16 07:30N 29°46' W 095°05'1 2.8
2018-May-16 07:00N 29°45' W 095°06'0 0.7
2018-May-16 06:30N 29°46' W 095°06'0 0.0
2018-May-16 06:00N 29°46' W 095°06'2 3.0
2018-May-16 05:30N 29°46' W 095°05'2 3.3
2018-May-16 04:59N 29°45' W 095°06'3 5.0
2018-May-16 04:29N 29°44' W 095°09'3 5.9
2018-May-16 04:00N 29°45' W 095°12'1 1.3
2018-May-16 03:30N 29°44' W 095°12'0 0.1
2018-May-16 03:00N 29°44' W 095°12'0 0.1
2018-May-16 02:30N 29°44' W 095°12'0 0.0
2018-May-16 02:00N 29°44' W 095°12'0 0.0
2018-May-15 12:15N 29°44' W 095°13'1 4.8
2018-May-15 12:00N 29°45' W 095°12'3 5.6
2018-May-15 11:30N 29°44' W 095°08'3 6.5
2018-May-15 11:00N 29°46' W 095°05'1 1.5
2018-May-15 10:30N 29°46' W 095°05'1 3.0
2018-May-15 10:00N 29°45' W 095°06'3 5.4
2018-May-15 09:29N 29°44' W 095°09'3 5.9
2018-May-15 09:00N 29°45' W 095°12'1 1.4
2018-May-15 08:18N 29°44' W 095°13'0 0.1
2018-May-15 07:59N 29°44' W 095°13'0 0.1
2018-May-15 06:37N 29°44' W 095°13'1 1.9
2018-May-15 06:20N 29°44' W 095°12'0 0.1
2018-May-15 05:57N 29°44' W 095°12'0 0.0
2018-May-15 05:29N 29°44' W 095°12'0 0.0
2018-May-15 04:47N 29°44' W 095°12'0 0.0
2018-May-15 04:30N 29°44' W 095°12'0 0.0
2018-May-15 04:00N 29°44' W 095°12'0 0.1
2018-May-15 03:29N 29°44' W 095°12'2 4.0
2018-May-15 03:00N 29°45' W 095°10'3 6.4
2018-May-15 02:30N 29°45' W 095°06'2 4.8
2018-May-15 02:00N 29°46' W 095°05'0 0.0
2018-May-15 01:29N 29°46' W 095°05'0 0.0
2018-May-15 00:59N 29°46' W 095°05'4 0.4
2018-May-14 13:35N 29°44' W 095°09'1 6.2
2018-May-14 13:30N 29°45' W 095°10'1 0.0
2018-May-13 12:09N 29°45' W 095°10'1 7.3
2018-May-13 11:57N 29°44' W 095°09'1 0.2
2018-May-13 06:36N 29°45' W 095°10'1 7.1
2018-May-13 06:26N 29°44' W 095°09'2 0.3
2018-May-12 22:25N 29°45' W 095°06'3 5.5
2018-May-12 21:56N 29°44' W 095°09'2 0.5
2018-May-12 18:27N 29°45' W 095°11'3 7.1
2018-May-12 18:00N 29°44' W 095°08'1 0.9
2018-May-12 16:43N 29°44' W 095°07'2 6.2
2018-May-12 16:23N 29°44' W 095°09'0 0.0
2018-May-12 12:26N 29°44' W 095°09'1 0.3
2018-May-12 06:56N 29°45' W 095°10'1 0.2
2018-May-12 00:49N 29°44' W 095°09'4 6.8
2018-May-12 00:12N 29°46' W 095°05'0 0.5
2018-May-11 23:52N 29°46' W 095°05'3 3.6
2018-May-11 23:08N 29°44' W 095°07'1 6.1
2018-May-11 22:59N 29°44' W 095°08'3 0.1
2018-May-11 01:43N 29°45' W 095°11'2 5.3
2018-May-11 01:25N 29°44' W 095°09'3 6.0
2018-May-11 00:54N 29°45' W 095°06'1 3.4
2018-May-11 00:30N 29°46' W 095°05'0 0.0
2018-May-10 23:51N 29°46' W 095°05'0 0.0
2018-May-10 22:41N 29°46' W 095°05'0 0.0
2018-May-10 22:17N 29°46' W 095°05'0 0.0
2018-May-10 21:59N 29°46' W 095°05'2 3.9
2018-May-10 21:24N 29°45' W 095°06'4 1.1
2018-May-10 17:43N 29°45' W 095°11'2 6.4
2018-May-10 17:25N 29°44' W 095°09'4 6.8
2018-May-10 16:48N 29°46' W 095°05'0 0.5
2018-May-10 16:29N 29°46' W 095°05'0 0.0
2018-May-10 16:00N 29°46' W 095°05'0 0.0
2018-May-10 15:18N 29°46' W 095°05'0 0.0
2018-May-10 15:00N 29°46' W 095°05'0 0.0
2018-May-10 14:23N 29°46' W 095°05'0 0.0
2018-May-10 13:57N 29°46' W 095°05'0 0.0
2018-May-10 13:29N 29°46' W 095°05'1 1.8
2018-May-10 12:58N 29°46' W 095°05'3 5.8
2018-May-10 12:27N 29°44' W 095°08'  

Dump ship's entire track history